sensor_id;sensor_type;location;lat;lon;timestamp;pressure;altitude;pressure_sealevel;temperature;humidity
64253;BME280;50592;52.958;-7.470;2023-04-29T00:00:32;100583.09;;;13.26;100.00
64253;BME280;50592;52.958;-7.470;2023-04-29T00:02:58;100578.94;;;13.23;100.00
64253;BME280;50592;52.958;-7.470;2023-04-29T00:05:23;100579.91;;;13.22;100.00
64253;BME280;50592;52.958;-7.470;2023-04-29T00:07:49;100576.28;;;13.23;100.00
64253;BME280;50592;52.958;-7.470;2023-04-29T00:10:15;100579.75;;;13.24;100.00
64253;BME280;50592;52.958;-7.470;2023-04-29T00:12:41;100581.44;;;13.25;100.00
64253;BME280;50592;52.958;-7.470;2023-04-29T00:15:07;100577.41;;;13.21;100.00
64253;BME280;50592;52.958;-7.470;2023-04-29T00:17:34;100572.38;;;13.09;100.00
64253;BME280;50592;52.958;-7.470;2023-04-29T00:20:00;100577.66;;;13.01;100.00
64253;BME280;50592;52.958;-7.470;2023-04-29T00:22:26;100572.31;;;12.93;100.00
64253;BME280;50592;52.958;-7.470;2023-04-29T00:24:52;100578.59;;;12.92;100.00
64253;BME280;50592;52.958;-7.470;2023-04-29T00:27:18;100573.44;;;12.90;100.00
64253;BME280;50592;52.958;-7.470;2023-04-29T00:29:45;100571.78;;;12.89;100.00
64253;BME280;50592;52.958;-7.470;2023-04-29T00:32:11;100577.78;;;12.91;100.00
64253;BME280;50592;52.958;-7.470;2023-04-29T00:34:37;100572.31;;;12.93;100.00
64253;BME280;50592;52.958;-7.470;2023-04-29T00:37:03;100582.59;;;12.96;100.00
64253;BME280;50592;52.958;-7.470;2023-04-29T00:39:28;100580.44;;;12.91;100.00
64253;BME280;50592;52.958;-7.470;2023-04-29T00:41:54;100579.91;;;12.87;100.00
64253;BME280;50592;52.958;-7.470;2023-04-29T00:44:20;100576.06;;;12.82;100.00
64253;BME280;50592;52.958;-7.470;2023-04-29T00:46:46;100580.16;;;12.76;100.00
64253;BME280;50592;52.958;-7.470;2023-04-29T00:49:13;100580.63;;;12.71;100.00
64253;BME280;50592;52.958;-7.470;2023-04-29T00:51:41;100581.53;;;12.62;100.00
64253;BME280;50592;52.958;-7.470;2023-04-29T00:54:08;100584.50;;;12.59;100.00
64253;BME280;50592;52.958;-7.470;2023-04-29T00:56:35;100582.00;;;12.57;100.00
64253;BME280;50592;52.958;-7.470;2023-04-29T00:59:02;100578.16;;;12.51;100.00
64253;BME280;50592;52.958;-7.470;2023-04-29T01:01:29;100587.63;;;12.54;100.00
64253;BME280;50592;52.958;-7.470;2023-04-29T01:03:56;100578.81;;;12.53;100.00
64253;BME280;50592;52.958;-7.470;2023-04-29T01:06:48;100582.16;;;12.56;100.00
64253;BME280;50592;52.958;-7.470;2023-04-29T01:09:42;100578.97;;;12.52;100.00
64253;BME280;50592;52.958;-7.470;2023-04-29T01:17:43;100583.47;;;12.51;100.00
64253;BME280;50592;52.958;-7.470;2023-04-29T01:20:13;100584.44;;;12.50;100.00
64253;BME280;50592;52.958;-7.470;2023-04-29T01:22:39;100580.13;;;12.49;100.00
64253;BME280;50592;52.958;-7.470;2023-04-29T01:25:06;100579.97;;;12.51;100.00
64253;BME280;50592;52.958;-7.470;2023-04-29T01:33:02;100573.53;;;12.53;100.00
64253;BME280;50592;52.958;-7.470;2023-04-29T01:36:07;100577.31;;;12.51;100.00
64253;BME280;50592;52.958;-7.470;2023-04-29T01:38:41;100573.97;;;12.49;100.00
64253;BME280;50592;52.958;-7.470;2023-04-29T01:41:13;100576.47;;;12.50;100.00
64253;BME280;50592;52.958;-7.470;2023-04-29T01:43:42;100583.31;;;12.53;100.00
64253;BME280;50592;52.958;-7.470;2023-04-29T01:46:19;100579.66;;;12.54;100.00
64253;BME280;50592;52.958;-7.470;2023-04-29T01:48:45;100579.34;;;12.57;100.00
64253;BME280;50592;52.958;-7.470;2023-04-29T01:51:11;100576.41;;;12.60;100.00
64253;BME280;50592;52.958;-7.470;2023-04-29T01:53:38;100580.69;;;12.61;100.00
64253;BME280;50592;52.958;-7.470;2023-04-29T01:56:08;100586.84;;;12.62;100.00
64253;BME280;50592;52.958;-7.470;2023-04-29T01:58:44;100586.69;;;12.63;100.00
64253;BME280;50592;52.958;-7.470;2023-04-29T02:01:28;100581.38;;;12.63;100.00
64253;BME280;50592;52.958;-7.470;2023-04-29T02:03:54;100580.44;;;12.64;100.00
64253;BME280;50592;52.958;-7.470;2023-04-29T02:06:20;100579.44;;;12.65;100.00
64253;BME280;50592;52.958;-7.470;2023-04-29T02:08:51;100582.91;;;12.66;100.00
64253;BME280;50592;52.958;-7.470;2023-04-29T02:11:18;100585.25;;;12.69;100.00
64253;BME280;50592;52.958;-7.470;2023-04-29T02:13:43;100583.72;;;12.67;100.00
64253;BME280;50592;52.958;-7.470;2023-04-29T02:16:13;100585.25;;;12.69;100.00
64253;BME280;50592;52.958;-7.470;2023-04-29T02:18:55;100592.53;;;12.67;100.00
64253;BME280;50592;52.958;-7.470;2023-04-29T02:21:21;100592.69;;;12.65;100.00
64253;BME280;50592;52.958;-7.470;2023-04-29T02:23:47;100591.31;;;12.61;100.00
64253;BME280;50592;52.958;-7.470;2023-04-29T02:26:13;100598.44;;;12.61;100.00
64253;BME280;50592;52.958;-7.470;2023-04-29T02:28:39;100591.63;;;12.58;100.00
64253;BME280;50592;52.958;-7.470;2023-04-29T02:31:05;100603.38;;;12.56;100.00
64253;BME280;50592;52.958;-7.470;2023-04-29T02:33:32;100596.88;;;12.50;100.00
64253;BME280;50592;52.958;-7.470;2023-04-29T02:35:58;100604.28;;;12.46;100.00
64253;BME280;50592;52.958;-7.470;2023-04-29T02:38:26;100600.16;;;12.44;100.00
64253;BME280;50592;52.958;-7.470;2023-04-29T02:40:52;100594.84;;;12.44;100.00
64253;BME280;50592;52.958;-7.470;2023-04-29T02:43:20;100598.59;;;12.41;100.00
64253;BME280;50592;52.958;-7.470;2023-04-29T02:45:46;100599.06;;;12.36;100.00
64253;BME280;50592;52.958;-7.470;2023-04-29T02:48:12;100592.81;;;12.37;100.00
64253;BME280;50592;52.958;-7.470;2023-04-29T02:50:39;100599.75;;;12.38;100.00
64253;BME280;50592;52.958;-7.470;2023-04-29T02:53:04;100595.44;;;12.37;100.00
64253;BME280;50592;52.958;-7.470;2023-04-29T02:55:31;100596.41;;;12.36;100.00
64253;BME280;50592;52.958;-7.470;2023-04-29T02:58:01;100599.22;;;12.35;100.00
64253;BME280;50592;52.958;-7.470;2023-04-29T03:00:28;100598.53;;;12.33;100.00
64253;BME280;50592;52.958;-7.470;2023-04-29T03:02:54;100602.88;;;12.34;100.00
64253;BME280;50592;52.958;-7.470;2023-04-29T03:05:19;100602.72;;;12.35;100.00
64253;BME280;50592;52.958;-7.470;2023-04-29T03:07:45;100597.25;;;12.37;100.00
64253;BME280;50592;52.958;-7.470;2023-04-29T03:10:11;100609.38;;;12.39;100.00
64253;BME280;50592;52.958;-7.470;2023-04-29T03:12:38;100606.25;;;12.44;100.00
64253;BME280;50592;52.958;-7.470;2023-04-29T03:15:06;100610.13;;;12.50;100.00
64253;BME280;50592;52.958;-7.470;2023-04-29T03:17:32;100606.34;;;12.52;100.00
64253;BME280;50592;52.958;-7.470;2023-04-29T03:19:59;100608.84;;;12.54;100.00
64253;BME280;50592;52.958;-7.470;2023-04-29T03:22:25;100612.16;;;12.56;100.00
64253;BME280;50592;52.958;-7.470;2023-04-29T03:24:51;100606.56;;;12.59;100.00
64253;BME280;50592;52.958;-7.470;2023-04-29T03:27:17;100616.00;;;12.62;100.00
64253;BME280;50592;52.958;-7.470;2023-04-29T03:29:43;100620.19;;;12.64;100.00
64253;BME280;50592;52.958;-7.470;2023-04-29T03:32:09;100615.56;;;12.67;100.00
64253;BME280;50592;52.958;-7.470;2023-04-29T03:34:35;100621.69;;;12.67;100.00
64253;BME280;50592;52.958;-7.470;2023-04-29T03:37:21;100613.75;;;12.67;100.00
64253;BME280;50592;52.958;-7.470;2023-04-29T03:39:53;100618.75;;;12.70;100.00
64253;BME280;50592;52.958;-7.470;2023-04-29T03:42:19;100615.09;;;12.71;100.00
64253;BME280;50592;52.958;-7.470;2023-04-29T03:44:45;100613.13;;;12.73;100.00
64253;BME280;50592;52.958;-7.470;2023-04-29T03:47:11;100607.66;;;12.75;100.00
64253;BME280;50592;52.958;-7.470;2023-04-29T03:49:38;100618.13;;;12.76;100.00
64253;BME280;50592;52.958;-7.470;2023-04-29T03:52:04;100616.63;;;12.74;100.00
64253;BME280;50592;52.958;-7.470;2023-04-29T03:54:31;100614.47;;;12.77;100.00
64253;BME280;50592;52.958;-7.470;2023-04-29T03:56:57;100612.81;;;12.76;100.00
64253;BME280;50592;52.958;-7.470;2023-04-29T03:59:23;100612.28;;;12.73;100.00
64253;BME280;50592;52.958;-7.470;2023-04-29T04:01:49;100605.78;;;12.67;100.00
64253;BME280;50592;52.958;-7.470;2023-04-29T04:04:16;100601.63;;;12.64;100.00
64253;BME280;50592;52.958;-7.470;2023-04-29T04:06:45;100611.34;;;12.56;100.00
64253;BME280;50592;52.958;-7.470;2023-04-29T04:09:18;100623.31;;;12.42;100.00
64253;BME280;50592;52.958;-7.470;2023-04-29T04:11:45;100628.75;;;12.40;100.00
64253;BME280;50592;52.958;-7.470;2023-04-29T04:14:11;100626.81;;;12.42;100.00
64253;BME280;50592;52.958;-7.470;2023-04-29T04:16:38;100626.34;;;12.47;100.00
64253;BME280;50592;52.958;-7.470;2023-04-29T04:19:03;100626.84;;;12.50;100.00
64253;BME280;50592;52.958;-7.470;2023-04-29T04:21:32;100632.69;;;12.54;100.00
64253;BME280;50592;52.958;-7.470;2023-04-29T04:24:04;100626.25;;;12.57;100.00
64253;BME280;50592;52.958;-7.470;2023-04-29T04:26:30;100625.94;;;12.60;100.00
64253;BME280;50592;52.958;-7.470;2023-04-29T04:28:56;100624.97;;;12.61;100.00
64253;BME280;50592;52.958;-7.470;2023-04-29T04:31:38;100625.78;;;12.61;100.00
64253;BME280;50592;52.958;-7.470;2023-04-29T04:34:04;100622.31;;;12.61;100.00
64253;BME280;50592;52.958;-7.470;2023-04-29T04:36:31;100613.53;;;12.60;100.00
64253;BME280;50592;52.958;-7.470;2023-04-29T04:38:57;100609.38;;;12.58;100.00
64253;BME280;50592;52.958;-7.470;2023-04-29T04:41:23;100609.28;;;12.49;100.00
64253;BME280;50592;52.958;-7.470;2023-04-29T04:43:51;100617.63;;;12.36;100.00
64253;BME280;50592;52.958;-7.470;2023-04-29T04:46:40;100618.69;;;12.25;100.00
64253;BME280;50592;52.958;-7.470;2023-04-29T04:49:17;100625.59;;;12.18;100.00
64253;BME280;50592;52.958;-7.470;2023-04-29T04:51:49;100625.59;;;12.18;100.00
64253;BME280;50592;52.958;-7.470;2023-04-29T04:54:16;100628.09;;;12.20;100.00
64253;BME280;50592;52.958;-7.470;2023-04-29T04:56:41;100627.25;;;12.19;100.00
64253;BME280;50592;52.958;-7.470;2023-04-29T04:59:08;100634.50;;;12.17;100.00
64253;BME280;50592;52.958;-7.470;2023-04-29T05:01:36;100635.34;;;12.18;100.00
64253;BME280;50592;52.958;-7.470;2023-04-29T05:04:01;100634.03;;;12.22;100.00
64253;BME280;50592;52.958;-7.470;2023-04-29T05:06:29;100635.59;;;12.24;100.00
64253;BME280;50592;52.958;-7.470;2023-04-29T05:08:55;100641.25;;;12.30;100.00
64253;BME280;50592;52.958;-7.470;2023-04-29T05:11:22;100642.63;;;12.34;100.00
64253;BME280;50592;52.958;-7.470;2023-04-29T05:14:03;100646.63;;;12.38;100.00
64253;BME280;50592;52.958;-7.470;2023-04-29T05:16:30;100648.97;;;12.41;100.00
64253;BME280;50592;52.958;-7.470;2023-04-29T05:18:56;100641.88;;;12.42;100.00
64253;BME280;50592;52.958;-7.470;2023-04-29T05:21:25;100639.22;;;12.42;100.00
64253;BME280;50592;52.958;-7.470;2023-04-29T05:23:51;100641.72;;;12.43;100.00
64253;BME280;50592;52.958;-7.470;2023-04-29T05:26:17;100645.88;;;12.46;100.00
64253;BME280;50592;52.958;-7.470;2023-04-29T05:28:43;100643.06;;;12.47;100.00
64253;BME280;50592;52.958;-7.470;2023-04-29T05:31:09;100639.44;;;12.48;100.00
64253;BME280;50592;52.958;-7.470;2023-04-29T05:33:36;100646.25;;;12.51;100.00
64253;BME280;50592;52.958;-7.470;2023-04-29T05:36:01;100644.28;;;12.53;100.00
64253;BME280;50592;52.958;-7.470;2023-04-29T05:38:27;100654.75;;;12.55;100.00
64253;BME280;50592;52.958;-7.470;2023-04-29T05:41:01;100661.00;;;12.53;100.00
64253;BME280;50592;52.958;-7.470;2023-04-29T05:43:31;100649.75;;;12.51;100.00
64253;BME280;50592;52.958;-7.470;2023-04-29T05:45:57;100652.25;;;12.53;100.00
64253;BME280;50592;52.958;-7.470;2023-04-29T05:48:23;100660.06;;;12.55;100.00
64253;BME280;50592;52.958;-7.470;2023-04-29T05:50:49;100656.56;;;12.54;100.00
64253;BME280;50592;52.958;-7.470;2023-04-29T05:53:16;100663.66;;;12.53;100.00
64253;BME280;50592;52.958;-7.470;2023-04-29T05:55:42;100655.06;;;12.51;100.00
64253;BME280;50592;52.958;-7.470;2023-04-29T05:58:10;100661.16;;;12.52;100.00
64253;BME280;50592;52.958;-7.470;2023-04-29T06:00:36;100655.06;;;12.51;100.00
64253;BME280;50592;52.958;-7.470;2023-04-29T06:03:09;100653.22;;;12.52;100.00
64253;BME280;50592;52.958;-7.470;2023-04-29T06:05:37;100668.00;;;12.55;100.00
64253;BME280;50592;52.958;-7.470;2023-04-29T06:08:17;100665.34;;;12.55;100.00
64253;BME280;50592;52.958;-7.470;2023-04-29T06:11:00;100673.16;;;12.56;100.00
64253;BME280;50592;52.958;-7.470;2023-04-29T06:13:28;100662.69;;;12.55;100.00
64253;BME280;50592;52.958;-7.470;2023-04-29T06:15:55;100661.84;;;12.54;100.00
64253;BME280;50592;52.958;-7.470;2023-04-29T06:18:21;100655.56;;;12.55;100.00
64253;BME280;50592;52.958;-7.470;2023-04-29T06:20:47;100666.84;;;12.57;100.00
64253;BME280;50592;52.958;-7.470;2023-04-29T06:23:13;100662.41;;;12.58;100.00
64253;BME280;50592;52.958;-7.470;2023-04-29T06:25:40;100664.44;;;12.64;100.00
64253;BME280;50592;52.958;-7.470;2023-04-29T06:28:07;100668.28;;;12.70;100.00
64253;BME280;50592;52.958;-7.470;2023-04-29T06:30:33;100670.47;;;12.74;100.00
64253;BME280;50592;52.958;-7.470;2023-04-29T06:32:59;100674.50;;;12.78;100.00
64253;BME280;50592;52.958;-7.470;2023-04-29T06:35:25;100664.25;;;12.84;100.00
64253;BME280;50592;52.958;-7.470;2023-04-29T06:38:05;100672.75;;;12.87;100.00
64253;BME280;50592;52.958;-7.470;2023-04-29T06:40:33;100673.06;;;12.84;100.00
64253;BME280;50592;52.958;-7.470;2023-04-29T06:43:05;100677.81;;;12.81;100.00
64253;BME280;50592;52.958;-7.470;2023-04-29T06:45:47;100682.50;;;12.87;100.00
64253;BME280;50592;52.958;-7.470;2023-04-29T06:48:21;100684.69;;;12.92;100.00
64253;BME280;50592;52.958;-7.470;2023-04-29T06:50:52;100681.78;;;12.95;100.00
64253;BME280;50592;52.958;-7.470;2023-04-29T06:53:20;100690.84;;;12.92;100.00
64253;BME280;50592;52.958;-7.470;2023-04-29T06:55:46;100695.31;;;12.92;100.00
64253;BME280;50592;52.958;-7.470;2023-04-29T06:58:16;100691.38;;;12.96;100.00
64253;BME280;50592;52.958;-7.470;2023-04-29T07:00:47;100689.25;;;12.99;100.00
64253;BME280;50592;52.958;-7.470;2023-04-29T07:03:14;100692.72;;;13.00;100.00
64253;BME280;50592;52.958;-7.470;2023-04-29T07:05:40;100684.31;;;13.05;100.00
64253;BME280;50592;52.958;-7.470;2023-04-29T07:08:08;100690.53;;;13.13;100.00
64253;BME280;50592;52.958;-7.470;2023-04-29T07:10:34;100686.56;;;13.18;100.00
64253;BME280;50592;52.958;-7.470;2023-04-29T07:13:01;100690.75;;;13.20;100.00
64253;BME280;50592;52.958;-7.470;2023-04-29T07:15:27;100688.28;;;13.27;100.00
64253;BME280;50592;52.958;-7.470;2023-04-29T07:17:54;100685.69;;;13.35;100.00
64253;BME280;50592;52.958;-7.470;2023-04-29T07:20:21;100691.34;;;13.40;100.00
64253;BME280;50592;52.958;-7.470;2023-04-29T07:22:48;100694.19;;;13.47;100.00
64253;BME280;50592;52.958;-7.470;2023-04-29T07:25:14;100689.13;;;13.54;100.00
64253;BME280;50592;52.958;-7.470;2023-04-29T07:27:40;100688.50;;;13.60;100.00
64253;BME280;50592;52.958;-7.470;2023-04-29T07:30:06;100693.81;;;13.60;100.00
64253;BME280;50592;52.958;-7.470;2023-04-29T07:32:33;100693.63;;;13.54;100.00
64253;BME280;50592;52.958;-7.470;2023-04-29T07:35:02;100686.69;;;13.43;100.00
64253;BME280;50592;52.958;-7.470;2023-04-29T07:37:29;100694.34;;;13.46;100.00
64253;BME280;50592;52.958;-7.470;2023-04-29T07:39:55;100692.38;;;13.48;100.00
64253;BME280;50592;52.958;-7.470;2023-04-29T07:42:22;100694.28;;;13.56;100.00
64253;BME280;50592;52.958;-7.470;2023-04-29T07:44:48;100702.25;;;13.56;100.00
64253;BME280;50592;52.958;-7.470;2023-04-29T07:47:14;100703.09;;;13.56;100.00
64253;BME280;50592;52.958;-7.470;2023-04-29T07:49:40;100700.78;;;13.61;100.00
64253;BME280;50592;52.958;-7.470;2023-04-29T07:52:07;100707.09;;;13.60;100.00
64253;BME280;50592;52.958;-7.470;2023-04-29T07:54:35;100702.25;;;13.56;100.00
64253;BME280;50592;52.958;-7.470;2023-04-29T07:57:01;100696.66;;;13.67;100.00
64253;BME280;50592;52.958;-7.470;2023-04-29T07:59:32;100702.22;;;13.82;100.00
64253;BME280;50592;52.958;-7.470;2023-04-29T08:01:58;100708.88;;;13.86;100.00
64253;BME280;50592;52.958;-7.470;2023-04-29T08:04:24;100696.91;;;13.82;100.00
64253;BME280;50592;52.958;-7.470;2023-04-29T08:07:03;100700.69;;;13.80;100.00
64253;BME280;50592;52.958;-7.470;2023-04-29T08:09:29;100705.38;;;13.86;100.00
64253;BME280;50592;52.958;-7.470;2023-04-29T08:11:55;100708.44;;;13.99;100.00
64253;BME280;50592;52.958;-7.470;2023-04-29T08:14:21;100704.31;;;14.13;100.00
64253;BME280;50592;52.958;-7.470;2023-04-29T08:16:46;100707.19;;;14.20;100.00
64253;BME280;50592;52.958;-7.470;2023-04-29T08:19:13;100711.88;;;14.35;100.00
64253;BME280;50592;52.958;-7.470;2023-04-29T08:21:39;100705.19;;;14.31;100.00
64253;BME280;50592;52.958;-7.470;2023-04-29T08:24:06;100709.38;;;14.33;100.00
64253;BME280;50592;52.958;-7.470;2023-04-29T08:26:32;100710.03;;;14.44;100.00
64253;BME280;50592;52.958;-7.470;2023-04-29T08:28:57;100709.91;;;14.54;100.00
64253;BME280;50592;52.958;-7.470;2023-04-29T08:31:24;100713.75;;;14.68;100.00
64253;BME280;50592;52.958;-7.470;2023-04-29T08:33:50;100709.91;;;14.79;100.00
64253;BME280;50592;52.958;-7.470;2023-04-29T08:36:16;100708.94;;;14.88;100.00
64253;BME280;50592;52.958;-7.470;2023-04-29T08:38:42;100715.59;;;15.00;100.00
64253;BME280;50592;52.958;-7.470;2023-04-29T08:41:08;100714.25;;;15.13;100.00
64253;BME280;50592;52.958;-7.470;2023-04-29T08:43:35;100710.59;;;15.22;100.00
64253;BME280;50592;52.958;-7.470;2023-04-29T08:46:08;100717.75;;;15.30;100.00
64253;BME280;50592;52.958;-7.470;2023-04-29T08:48:36;100719.06;;;15.34;100.00
64253;BME280;50592;52.958;-7.470;2023-04-29T08:51:02;100714.41;;;15.45;100.00
64253;BME280;50592;52.958;-7.470;2023-04-29T08:53:28;100708.72;;;15.48;100.00
64253;BME280;50592;52.958;-7.470;2023-04-29T08:55:57;100719.00;;;15.59;100.00
64253;BME280;50592;52.958;-7.470;2023-04-29T08:58:27;100710.03;;;15.60;100.00
64253;BME280;50592;52.958;-7.470;2023-04-29T09:00:54;100720.16;;;15.65;100.00
64253;BME280;50592;52.958;-7.470;2023-04-29T09:03:28;100712.44;;;15.79;100.00
64253;BME280;50592;52.958;-7.470;2023-04-29T09:05:59;100715.75;;;15.89;100.00
64253;BME280;50592;52.958;-7.470;2023-04-29T09:08:27;100720.38;;;15.95;100.00
64253;BME280;50592;52.958;-7.470;2023-04-29T09:10:53;100713.72;;;15.91;100.00
64253;BME280;50592;52.958;-7.470;2023-04-29T09:15:49;100713.72;;;15.99;100.00
64253;BME280;50592;52.958;-7.470;2023-04-29T09:18:44;100717.38;;;16.07;100.00
64253;BME280;50592;52.958;-7.470;2023-04-29T09:21:20;100724.63;;;16.21;100.00
64253;BME280;50592;52.958;-7.470;2023-04-29T09:23:51;100720.44;;;16.27;100.00
64253;BME280;50592;52.958;-7.470;2023-04-29T09:26:17;100721.38;;;16.34;100.00
64253;BME280;50592;52.958;-7.470;2023-04-29T09:28:43;100721.88;;;16.38;100.00
64253;BME280;50592;52.958;-7.470;2023-04-29T09:31:10;100719.63;;;16.50;100.00
64253;BME280;50592;52.958;-7.470;2023-04-29T09:33:56;100717.72;;;16.59;100.00
64253;BME280;50592;52.958;-7.470;2023-04-29T09:36:49;100715.94;;;16.74;100.00
64253;BME280;50592;52.958;-7.470;2023-04-29T09:39:20;100721.06;;;16.84;100.00
64253;BME280;50592;52.958;-7.470;2023-04-29T09:44:30;100718.72;;;17.05;100.00
64253;BME280;50592;52.958;-7.470;2023-04-29T09:47:04;100711.66;;;17.12;100.00
64253;BME280;50592;52.958;-7.470;2023-04-29T09:52:04;100717.56;;;17.22;100.00
64253;BME280;50592;52.958;-7.470;2023-04-29T09:54:32;100710.41;;;17.23;100.00
64253;BME280;50592;52.958;-7.470;2023-04-29T09:57:00;100710.41;;;17.23;100.00
64253;BME280;50592;52.958;-7.470;2023-04-29T09:59:26;100718.13;;;17.18;100.00
64253;BME280;50592;52.958;-7.470;2023-04-29T10:01:57;100715.56;;;17.25;100.00
64253;BME280;50592;52.958;-7.470;2023-04-29T10:04:25;100716.75;;;17.22;100.00
64253;BME280;50592;52.958;-7.470;2023-04-29T10:06:54;100708.66;;;17.30;100.00
64253;BME280;50592;52.958;-7.470;2023-04-29T10:09:22;100712.78;;;17.33;100.00
64253;BME280;50592;52.958;-7.470;2023-04-29T10:11:50;100711.06;;;17.40;100.00
64253;BME280;50592;52.958;-7.470;2023-04-29T10:14:17;100702.69;;;17.43;100.00
64253;BME280;50592;52.958;-7.470;2023-04-29T10:19:33;100711.16;;;17.47;100.00
64253;BME280;50592;52.958;-7.470;2023-04-29T10:22:06;100713.56;;;17.42;100.00
64253;BME280;50592;52.958;-7.470;2023-04-29T10:24:35;100709.38;;;17.39;100.00
64253;BME280;50592;52.958;-7.470;2023-04-29T10:27:06;100719.44;;;17.37;100.00
64253;BME280;50592;52.958;-7.470;2023-04-29T10:29:33;100718.13;;;17.33;100.00
64253;BME280;50592;52.958;-7.470;2023-04-29T10:32:03;100718.31;;;17.31;100.00
64253;BME280;50592;52.958;-7.470;2023-04-29T10:34:30;100715.81;;;17.30;100.00
64253;BME280;50592;52.958;-7.470;2023-04-29T10:36:58;100712.34;;;17.29;100.00
64253;BME280;50592;52.958;-7.470;2023-04-29T10:45:30;100714.75;;;17.54;100.00
64253;BME280;50592;52.958;-7.470;2023-04-29T10:53:16;100721.66;;;17.79;100.00
64253;BME280;50592;52.958;-7.470;2023-04-29T10:55:52;100722.94;;;17.83;100.00
64253;BME280;50592;52.958;-7.470;2023-04-29T11:01:13;100719.34;;;17.91;100.00
64253;BME280;50592;52.958;-7.470;2023-04-29T11:04:05;100718.31;;;17.92;100.00
64253;BME280;50592;52.958;-7.470;2023-04-29T11:09:07;100720.78;;;17.93;100.00
64253;BME280;50592;52.958;-7.470;2023-04-29T11:14:08;100717.38;;;18.15;100.00
64253;BME280;50592;52.958;-7.470;2023-04-29T11:16:46;100707.59;;;18.22;100.00
64253;BME280;50592;52.958;-7.470;2023-04-29T11:19:14;100712.13;;;18.21;100.00
64253;BME280;50592;52.958;-7.470;2023-04-29T11:21:40;100720.44;;;18.12;100.00
64253;BME280;50592;52.958;-7.470;2023-04-29T11:24:07;100710.00;;;18.02;100.00
64253;BME280;50592;52.958;-7.470;2023-04-29T11:26:36;100718.22;;;18.00;100.00
64253;BME280;50592;52.958;-7.470;2023-04-29T11:29:03;100714.00;;;17.91;100.00
64253;BME280;50592;52.958;-7.470;2023-04-29T11:31:30;100719.72;;;17.88;100.00
64253;BME280;50592;52.958;-7.470;2023-04-29T11:33:58;100712.16;;;17.91;100.00
64253;BME280;50592;52.958;-7.470;2023-04-29T11:36:24;100709.09;;;17.94;100.00
64253;BME280;50592;52.958;-7.470;2023-04-29T11:38:50;100704.84;;;18.00;100.00
64253;BME280;50592;52.958;-7.470;2023-04-29T11:41:16;100712.75;;;18.08;100.00
64253;BME280;50592;52.958;-7.470;2023-04-29T11:43:45;100710.41;;;18.14;100.00
64253;BME280;50592;52.958;-7.470;2023-04-29T11:46:12;100707.41;;;18.23;100.00
64253;BME280;50592;52.958;-7.470;2023-04-29T11:48:45;100713.88;;;18.51;100.00
64253;BME280;50592;52.958;-7.470;2023-04-29T11:51:16;100711.00;;;18.53;100.00
64253;BME280;50592;52.958;-7.470;2023-04-29T11:53:43;100705.91;;;18.58;100.00
64253;BME280;50592;52.958;-7.470;2023-04-29T11:56:10;100703.69;;;18.62;100.00
64253;BME280;50592;52.958;-7.470;2023-04-29T11:58:36;100697.38;;;18.69;100.00
64253;BME280;50592;52.958;-7.470;2023-04-29T12:01:05;100697.09;;;18.86;100.00
64253;BME280;50592;52.958;-7.470;2023-04-29T12:03:32;100690.97;;;19.14;100.00
64253;BME280;50592;52.958;-7.470;2023-04-29T12:05:58;100687.16;;;19.37;100.00
64253;BME280;50592;52.958;-7.470;2023-04-29T12:08:25;100690.75;;;19.51;100.00
64253;BME280;50592;52.958;-7.470;2023-04-29T12:10:57;100698.22;;;19.63;100.00
64253;BME280;50592;52.958;-7.470;2023-04-29T12:13:26;100696.38;;;19.63;100.00
64253;BME280;50592;52.958;-7.470;2023-04-29T12:15:52;100697.94;;;19.44;100.00
64253;BME280;50592;52.958;-7.470;2023-04-29T12:18:18;100693.06;;;19.26;100.00
64253;BME280;50592;52.958;-7.470;2023-04-29T12:20:44;100690.75;;;19.16;100.00
64253;BME280;50592;52.958;-7.470;2023-04-29T12:23:20;100700.38;;;19.10;100.00
64253;BME280;50592;52.958;-7.470;2023-04-29T12:25:51;100692.47;;;19.02;100.00
64253;BME280;50592;52.958;-7.470;2023-04-29T12:28:17;100689.75;;;18.95;100.00
64253;BME280;50592;52.958;-7.470;2023-04-29T12:30:45;100688.03;;;18.87;100.00
64253;BME280;50592;52.958;-7.470;2023-04-29T12:33:18;100688.66;;;18.89;100.00
64253;BME280;50592;52.958;-7.470;2023-04-29T12:35:44;100688.28;;;18.92;100.00
64253;BME280;50592;52.958;-7.470;2023-04-29T12:38:10;100684.97;;;18.90;100.00
64253;BME280;50592;52.958;-7.470;2023-04-29T12:40:39;100684.72;;;18.85;100.00
64253;BME280;50592;52.958;-7.470;2023-04-29T12:43:09;100683.63;;;18.79;100.00
64253;BME280;50592;52.958;-7.470;2023-04-29T12:45:35;100689.47;;;18.61;100.00
64253;BME280;50592;52.958;-7.470;2023-04-29T12:48:01;100682.97;;;18.49;100.00
64253;BME280;50592;52.958;-7.470;2023-04-29T12:50:36;100683.78;;;18.49;100.00
64253;BME280;50592;52.958;-7.470;2023-04-29T12:53:04;100672.66;;;18.45;100.00
64253;BME280;50592;52.958;-7.470;2023-04-29T12:55:35;100679.00;;;18.44;100.00
64253;BME280;50592;52.958;-7.470;2023-04-29T12:58:03;100677.28;;;18.37;100.00
64253;BME280;50592;52.958;-7.470;2023-04-29T13:00:29;100674.97;;;18.33;100.00
64253;BME280;50592;52.958;-7.470;2023-04-29T13:02:55;100678.03;;;18.30;100.00
64253;BME280;50592;52.958;-7.470;2023-04-29T13:05:21;100667.91;;;18.26;100.00
64253;BME280;50592;52.958;-7.470;2023-04-29T13:07:48;100675.09;;;18.25;100.00
64253;BME280;50592;52.958;-7.470;2023-04-29T13:10:14;100662.75;;;18.24;100.00
64253;BME280;50592;52.958;-7.470;2023-04-29T13:12:41;100667.91;;;18.26;100.00
64253;BME280;50592;52.958;-7.470;2023-04-29T13:15:07;100669.69;;;18.18;100.00
64253;BME280;50592;52.958;-7.470;2023-04-29T13:17:36;100673.22;;;18.04;100.00